sensor_id;sensor_type;location;lat;lon;timestamp;temperature;humidity
15879;DHT22;61999;51.514;14.614;2023-09-18T00:02:09;14.00;53.00
15879;DHT22;61999;51.514;14.614;2023-09-18T00:04:37;14.00;53.00
15879;DHT22;61999;51.514;14.614;2023-09-18T00:07:05;14.00;53.00
15879;DHT22;61999;51.514;14.614;2023-09-18T00:09:33;14.00;53.20
15879;DHT22;61999;51.514;14.614;2023-09-18T00:12:01;13.90;53.20
15879;DHT22;61999;51.514;14.614;2023-09-18T00:14:29;13.90;53.30
15879;DHT22;61999;51.514;14.614;2023-09-18T00:16:59;13.90;53.30
15879;DHT22;61999;51.514;14.614;2023-09-18T00:19:27;13.90;53.50
15879;DHT22;61999;51.514;14.614;2023-09-18T00:21:55;13.80;53.50
15879;DHT22;61999;51.514;14.614;2023-09-18T00:24:27;13.80;53.50
15879;DHT22;61999;51.514;14.614;2023-09-18T00:26:55;13.80;53.50
15879;DHT22;61999;51.514;14.614;2023-09-18T00:29:23;13.80;53.60
15879;DHT22;61999;51.514;14.614;2023-09-18T00:31:51;13.70;53.70
15879;DHT22;61999;51.514;14.614;2023-09-18T00:34:20;13.70;53.80
15879;DHT22;61999;51.514;14.614;2023-09-18T00:36:48;13.70;53.80
15879;DHT22;61999;51.514;14.614;2023-09-18T00:39:16;13.70;53.90
15879;DHT22;61999;51.514;14.614;2023-09-18T00:41:44;13.70;54.00
15879;DHT22;61999;51.514;14.614;2023-09-18T00:44:15;13.60;53.90
15879;DHT22;61999;51.514;14.614;2023-09-18T00:46:43;13.60;54.00
15879;DHT22;61999;51.514;14.614;2023-09-18T00:49:11;13.60;54.10
15879;DHT22;61999;51.514;14.614;2023-09-18T00:51:42;13.60;54.10
15879;DHT22;61999;51.514;14.614;2023-09-18T00:54:11;13.60;54.20
15879;DHT22;61999;51.514;14.614;2023-09-18T00:56:39;13.60;54.20
15879;DHT22;61999;51.514;14.614;2023-09-18T00:59:07;13.50;54.20
15879;DHT22;61999;51.514;14.614;2023-09-18T01:01:36;13.50;54.30
15879;DHT22;61999;51.514;14.614;2023-09-18T01:04:05;13.50;54.40
15879;DHT22;61999;51.514;14.614;2023-09-18T01:06:34;13.50;54.50
15879;DHT22;61999;51.514;14.614;2023-09-18T01:09:04;13.40;54.40
15879;DHT22;61999;51.514;14.614;2023-09-18T01:11:43;13.40;54.50
15879;DHT22;61999;51.514;14.614;2023-09-18T01:14:27;13.40;54.60
15879;DHT22;61999;51.514;14.614;2023-09-18T01:17:01;13.40;54.60
15879;DHT22;61999;51.514;14.614;2023-09-18T01:19:37;13.40;54.70
15879;DHT22;61999;51.514;14.614;2023-09-18T01:22:07;13.30;54.70
15879;DHT22;61999;51.514;14.614;2023-09-18T01:24:39;13.30;54.70
15879;DHT22;61999;51.514;14.614;2023-09-18T01:27:09;13.30;54.70
15879;DHT22;61999;51.514;14.614;2023-09-18T01:29:39;13.30;54.80
15879;DHT22;61999;51.514;14.614;2023-09-18T01:32:07;13.20;54.80
15879;DHT22;61999;51.514;14.614;2023-09-18T01:34:37;13.20;54.80
15879;DHT22;61999;51.514;14.614;2023-09-18T01:37:09;13.20;54.90
15879;DHT22;61999;51.514;14.614;2023-09-18T01:39:41;13.20;55.00
15879;DHT22;61999;51.514;14.614;2023-09-18T01:42:10;13.10;55.20
15879;DHT22;61999;51.514;14.614;2023-09-18T01:44:38;13.10;55.10
15879;DHT22;61999;51.514;14.614;2023-09-18T01:47:07;13.10;55.10
15879;DHT22;61999;51.514;14.614;2023-09-18T01:49:38;13.00;55.10
15879;DHT22;61999;51.514;14.614;2023-09-18T01:52:08;13.00;55.20
15879;DHT22;61999;51.514;14.614;2023-09-18T01:54:36;13.00;55.30
15879;DHT22;61999;51.514;14.614;2023-09-18T01:57:06;13.00;55.20
15879;DHT22;61999;51.514;14.614;2023-09-18T01:59:34;12.90;55.30
15879;DHT22;61999;51.514;14.614;2023-09-18T02:02:02;13.00;55.40
15879;DHT22;61999;51.514;14.614;2023-09-18T02:04:33;12.90;56.10
15879;DHT22;61999;51.514;14.614;2023-09-18T02:07:01;12.90;55.50
15879;DHT22;61999;51.514;14.614;2023-09-18T02:09:29;12.90;55.50
15879;DHT22;61999;51.514;14.614;2023-09-18T02:11:57;12.90;55.70
15879;DHT22;61999;51.514;14.614;2023-09-18T02:14:26;12.80;55.70
15879;DHT22;61999;51.514;14.614;2023-09-18T02:16:57;12.80;56.00
15879;DHT22;61999;51.514;14.614;2023-09-18T02:19:25;12.80;55.80
15879;DHT22;61999;51.514;14.614;2023-09-18T02:21:56;12.80;55.90
15879;DHT22;61999;51.514;14.614;2023-09-18T02:24:24;12.80;55.80
15879;DHT22;61999;51.514;14.614;2023-09-18T02:26:53;12.70;55.80
15879;DHT22;61999;51.514;14.614;2023-09-18T02:29:21;12.70;56.40
15879;DHT22;61999;51.514;14.614;2023-09-18T02:31:50;12.70;56.50
15879;DHT22;61999;51.514;14.614;2023-09-18T02:34:18;12.60;57.30
15879;DHT22;61999;51.514;14.614;2023-09-18T02:36:46;12.60;57.10
15879;DHT22;61999;51.514;14.614;2023-09-18T02:39:14;12.50;58.50
15879;DHT22;61999;51.514;14.614;2023-09-18T02:41:42;12.40;60.60
15879;DHT22;61999;51.514;14.614;2023-09-18T02:44:10;12.40;58.60
15879;DHT22;61999;51.514;14.614;2023-09-18T02:46:41;12.40;60.40
15879;DHT22;61999;51.514;14.614;2023-09-18T02:49:11;12.30;59.40
15879;DHT22;61999;51.514;14.614;2023-09-18T02:51:39;12.30;60.40
15879;DHT22;61999;51.514;14.614;2023-09-18T02:54:07;12.30;59.70
15879;DHT22;61999;51.514;14.614;2023-09-18T02:56:34;12.20;60.20
15879;DHT22;61999;51.514;14.614;2023-09-18T02:59:02;12.20;59.50
15879;DHT22;61999;51.514;14.614;2023-09-18T03:01:30;12.20;59.60
15879;DHT22;61999;51.514;14.614;2023-09-18T03:03:58;12.20;58.60
15879;DHT22;61999;51.514;14.614;2023-09-18T03:06:29;12.20;58.40
15879;DHT22;61999;51.514;14.614;2023-09-18T03:08:57;12.20;58.90
15879;DHT22;61999;51.514;14.614;2023-09-18T03:11:25;12.20;58.80
15879;DHT22;61999;51.514;14.614;2023-09-18T03:13:55;12.20;59.00
15879;DHT22;61999;51.514;14.614;2023-09-18T03:16:23;12.10;60.00
15879;DHT22;61999;51.514;14.614;2023-09-18T03:18:51;12.10;59.90
15879;DHT22;61999;51.514;14.614;2023-09-18T03:21:19;12.00;60.80
15879;DHT22;61999;51.514;14.614;2023-09-18T03:23:48;12.00;59.70
15879;DHT22;61999;51.514;14.614;2023-09-18T03:26:16;12.00;59.10
15879;DHT22;61999;51.514;14.614;2023-09-18T03:28:44;12.00;58.80
15879;DHT22;61999;51.514;14.614;2023-09-18T03:31:12;12.00;58.70
15879;DHT22;61999;51.514;14.614;2023-09-18T03:33:40;12.00;58.90
15879;DHT22;61999;51.514;14.614;2023-09-18T03:36:08;11.90;59.00
15879;DHT22;61999;51.514;14.614;2023-09-18T03:38:38;11.90;59.60
15879;DHT22;61999;51.514;14.614;2023-09-18T03:41:07;11.90;59.40
15879;DHT22;61999;51.514;14.614;2023-09-18T03:43:35;11.90;59.60
15879;DHT22;61999;51.514;14.614;2023-09-18T03:46:03;11.90;59.40
15879;DHT22;61999;51.514;14.614;2023-09-18T03:48:32;11.90;60.10
15879;DHT22;61999;51.514;14.614;2023-09-18T03:51:04;11.80;59.20
15879;DHT22;61999;51.514;14.614;2023-09-18T03:53:32;11.80;59.00
15879;DHT22;61999;51.514;14.614;2023-09-18T03:56:00;11.80;58.70
15879;DHT22;61999;51.514;14.614;2023-09-18T03:58:30;11.90;58.70
15879;DHT22;61999;51.514;14.614;2023-09-18T04:00:59;11.80;58.60
15879;DHT22;61999;51.514;14.614;2023-09-18T04:03:28;11.80;58.80
15879;DHT22;61999;51.514;14.614;2023-09-18T04:05:56;11.80;58.70
15879;DHT22;61999;51.514;14.614;2023-09-18T04:08:24;11.80;58.60
15879;DHT22;61999;51.514;14.614;2023-09-18T04:10:53;11.80;58.50
15879;DHT22;61999;51.514;14.614;2023-09-18T04:13:22;11.80;58.60
15879;DHT22;61999;51.514;14.614;2023-09-18T04:15:56;11.80;58.60
15879;DHT22;61999;51.514;14.614;2023-09-18T04:18:27;11.70;58.40
15879;DHT22;61999;51.514;14.614;2023-09-18T04:20:55;11.70;58.60
15879;DHT22;61999;51.514;14.614;2023-09-18T04:23:24;11.70;58.60
15879;DHT22;61999;51.514;14.614;2023-09-18T04:25:54;11.70;58.60
15879;DHT22;61999;51.514;14.614;2023-09-18T04:28:24;11.70;58.70
15879;DHT22;61999;51.514;14.614;2023-09-18T04:30:53;11.70;58.70
15879;DHT22;61999;51.514;14.614;2023-09-18T04:33:22;11.60;58.60
15879;DHT22;61999;51.514;14.614;2023-09-18T04:35:50;11.60;58.70
15879;DHT22;61999;51.514;14.614;2023-09-18T04:38:18;11.60;58.80
15879;DHT22;61999;51.514;14.614;2023-09-18T04:40:46;11.60;59.50
15879;DHT22;61999;51.514;14.614;2023-09-18T04:43:14;11.60;59.60
15879;DHT22;61999;51.514;14.614;2023-09-18T04:45:42;11.50;60.10
15879;DHT22;61999;51.514;14.614;2023-09-18T04:48:11;11.60;59.50
15879;DHT22;61999;51.514;14.614;2023-09-18T04:50:39;11.50;59.30
15879;DHT22;61999;51.514;14.614;2023-09-18T04:53:07;11.60;59.70
15879;DHT22;61999;51.514;14.614;2023-09-18T04:55:35;11.50;60.70
15879;DHT22;61999;51.514;14.614;2023-09-18T04:58:04;11.50;60.80
15879;DHT22;61999;51.514;14.614;2023-09-18T05:00:33;11.40;61.50
15879;DHT22;61999;51.514;14.614;2023-09-18T05:03:01;11.40;61.70
15879;DHT22;61999;51.514;14.614;2023-09-18T05:05:31;11.40;61.20
15879;DHT22;61999;51.514;14.614;2023-09-18T05:07:59;11.40;61.10
15879;DHT22;61999;51.514;14.614;2023-09-18T05:10:29;11.50;60.60
15879;DHT22;61999;51.514;14.614;2023-09-18T05:12:58;11.50;60.60
15879;DHT22;61999;51.514;14.614;2023-09-18T05:15:26;11.50;61.30
15879;DHT22;61999;51.514;14.614;2023-09-18T05:17:56;11.50;60.80
15879;DHT22;61999;51.514;14.614;2023-09-18T05:20:27;11.50;60.60
15879;DHT22;61999;51.514;14.614;2023-09-18T05:22:58;11.60;60.60
15879;DHT22;61999;51.514;14.614;2023-09-18T05:25:29;11.60;62.90
15879;DHT22;61999;51.514;14.614;2023-09-18T05:27:59;11.60;62.80
15879;DHT22;61999;51.514;14.614;2023-09-18T05:30:32;11.50;65.40
15879;DHT22;61999;51.514;14.614;2023-09-18T05:33:02;11.40;65.20
15879;DHT22;61999;51.514;14.614;2023-09-18T05:35:32;11.50;63.50
15879;DHT22;61999;51.514;14.614;2023-09-18T05:38:01;11.70;63.20
15879;DHT22;61999;51.514;14.614;2023-09-18T05:40:29;11.70;63.70
15879;DHT22;61999;51.514;14.614;2023-09-18T05:42:58;11.70;63.80
15879;DHT22;61999;51.514;14.614;2023-09-18T05:45:26;11.80;62.90
15879;DHT22;61999;51.514;14.614;2023-09-18T05:47:55;11.80;62.70
15879;DHT22;61999;51.514;14.614;2023-09-18T05:50:28;11.90;64.00
15879;DHT22;61999;51.514;14.614;2023-09-18T05:52:58;12.00;62.90
15879;DHT22;61999;51.514;14.614;2023-09-18T05:55:28;12.00;62.70
15879;DHT22;61999;51.514;14.614;2023-09-18T05:57:56;12.10;62.90
15879;DHT22;61999;51.514;14.614;2023-09-18T06:00:25;12.20;62.70
15879;DHT22;61999;51.514;14.614;2023-09-18T06:02:53;12.30;62.50
15879;DHT22;61999;51.514;14.614;2023-09-18T06:05:21;12.40;62.50
15879;DHT22;61999;51.514;14.614;2023-09-18T06:07:49;12.40;62.40
15879;DHT22;61999;51.514;14.614;2023-09-18T06:10:17;12.50;62.50
15879;DHT22;61999;51.514;14.614;2023-09-18T06:12:46;12.60;62.80
15879;DHT22;61999;51.514;14.614;2023-09-18T06:15:14;12.60;62.40
15879;DHT22;61999;51.514;14.614;2023-09-18T06:17:44;12.70;62.40
15879;DHT22;61999;51.514;14.614;2023-09-18T06:20:12;12.80;63.30
15879;DHT22;61999;51.514;14.614;2023-09-18T06:22:42;12.80;63.10
15879;DHT22;61999;51.514;14.614;2023-09-18T06:25:10;12.90;63.00
15879;DHT22;61999;51.514;14.614;2023-09-18T06:27:38;13.00;63.40
15879;DHT22;61999;51.514;14.614;2023-09-18T06:30:08;13.10;63.10
15879;DHT22;61999;51.514;14.614;2023-09-18T06:32:36;13.20;62.90
15879;DHT22;61999;51.514;14.614;2023-09-18T06:35:05;13.30;63.70
15879;DHT22;61999;51.514;14.614;2023-09-18T06:37:33;13.30;63.60
15879;DHT22;61999;51.514;14.614;2023-09-18T06:40:01;13.30;63.60
15879;DHT22;61999;51.514;14.614;2023-09-18T06:42:31;13.40;63.80
15879;DHT22;61999;51.514;14.614;2023-09-18T06:44:59;13.50;63.60
15879;DHT22;61999;51.514;14.614;2023-09-18T06:47:29;13.60;63.20
15879;DHT22;61999;51.514;14.614;2023-09-18T06:49:57;13.70;63.20
15879;DHT22;61999;51.514;14.614;2023-09-18T06:52:26;13.80;63.20
15879;DHT22;61999;51.514;14.614;2023-09-18T06:54:55;13.90;62.90
15879;DHT22;61999;51.514;14.614;2023-09-18T06:57:24;14.00;62.60
15879;DHT22;61999;51.514;14.614;2023-09-18T06:59:52;14.10;62.50
15879;DHT22;61999;51.514;14.614;2023-09-18T07:02:20;14.10;62.40
15879;DHT22;61999;51.514;14.614;2023-09-18T07:04:50;14.30;62.30
15879;DHT22;61999;51.514;14.614;2023-09-18T07:07:18;14.30;61.90
15879;DHT22;61999;51.514;14.614;2023-09-18T07:09:51;14.50;62.10
15879;DHT22;61999;51.514;14.614;2023-09-18T07:12:29;14.50;61.40
15879;DHT22;61999;51.514;14.614;2023-09-18T07:14:59;14.60;61.30
15879;DHT22;61999;51.514;14.614;2023-09-18T07:17:29;14.60;61.20
15879;DHT22;61999;51.514;14.614;2023-09-18T07:19:59;14.70;61.20
15879;DHT22;61999;51.514;14.614;2023-09-18T07:22:27;14.70;60.90
15879;DHT22;61999;51.514;14.614;2023-09-18T07:24:56;14.80;60.90
15879;DHT22;61999;51.514;14.614;2023-09-18T07:27:25;14.90;60.90
15879;DHT22;61999;51.514;14.614;2023-09-18T07:29:55;15.00;60.80
15879;DHT22;61999;51.514;14.614;2023-09-18T07:32:24;15.10;60.70
15879;DHT22;61999;51.514;14.614;2023-09-18T07:35:04;15.20;60.50
15879;DHT22;61999;51.514;14.614;2023-09-18T07:37:33;15.20;60.10
15879;DHT22;61999;51.514;14.614;2023-09-18T07:40:02;15.40;60.00
15879;DHT22;61999;51.514;14.614;2023-09-18T07:42:30;15.60;60.20
15879;DHT22;61999;51.514;14.614;2023-09-18T07:44:58;15.80;59.90
15879;DHT22;61999;51.514;14.614;2023-09-18T07:47:26;16.00;59.50
15879;DHT22;61999;51.514;14.614;2023-09-18T07:49:56;16.20;58.90
15879;DHT22;61999;51.514;14.614;2023-09-18T07:52:26;16.30;59.00
15879;DHT22;61999;51.514;14.614;2023-09-18T07:54:54;16.60;59.20
15879;DHT22;61999;51.514;14.614;2023-09-18T07:57:22;16.80;59.20
15879;DHT22;61999;51.514;14.614;2023-09-18T07:59:51;17.00;57.50
15879;DHT22;61999;51.514;14.614;2023-09-18T08:02:19;17.10;57.80
15879;DHT22;61999;51.514;14.614;2023-09-18T08:04:48;17.40;56.40
15879;DHT22;61999;51.514;14.614;2023-09-18T08:07:16;17.50;57.30
15879;DHT22;61999;51.514;14.614;2023-09-18T08:09:45;17.70;55.20
15879;DHT22;61999;51.514;14.614;2023-09-18T08:12:15;17.90;55.70
15879;DHT22;61999;51.514;14.614;2023-09-18T08:14:43;18.10;55.40
15879;DHT22;61999;51.514;14.614;2023-09-18T08:17:11;18.40;55.80
15879;DHT22;61999;51.514;14.614;2023-09-18T08:19:40;18.70;55.30
15879;DHT22;61999;51.514;14.614;2023-09-18T08:22:08;18.90;54.30
15879;DHT22;61999;51.514;14.614;2023-09-18T08:24:36;19.10;54.80
15879;DHT22;61999;51.514;14.614;2023-09-18T08:27:06;19.40;52.30
15879;DHT22;61999;51.514;14.614;2023-09-18T08:29:34;19.70;52.30
15879;DHT22;61999;51.514;14.614;2023-09-18T08:32:02;19.80;50.40
15879;DHT22;61999;51.514;14.614;2023-09-18T08:34:29;20.10;50.90
15879;DHT22;61999;51.514;14.614;2023-09-18T08:36:58;20.20;50.90
15879;DHT22;61999;51.514;14.614;2023-09-18T08:39:25;20.40;50.50
15879;DHT22;61999;51.514;14.614;2023-09-18T08:41:59;20.60;49.90
15879;DHT22;61999;51.514;14.614;2023-09-18T08:44:31;20.90;48.60
15879;DHT22;61999;51.514;14.614;2023-09-18T08:46:59;21.10;49.90
15879;DHT22;61999;51.514;14.614;2023-09-18T08:49:29;21.30;49.10
15879;DHT22;61999;51.514;14.614;2023-09-18T08:51:59;21.60;48.50
15879;DHT22;61999;51.514;14.614;2023-09-18T08:54:29;21.80;46.90
15879;DHT22;61999;51.514;14.614;2023-09-18T08:56:57;22.10;46.80
15879;DHT22;61999;51.514;14.614;2023-09-18T08:59:25;22.20;45.10
15879;DHT22;61999;51.514;14.614;2023-09-18T09:01:56;22.30;45.60
15879;DHT22;61999;51.514;14.614;2023-09-18T09:04:24;22.50;44.80
15879;DHT22;61999;51.514;14.614;2023-09-18T09:06:53;22.70;44.00
15879;DHT22;61999;51.514;14.614;2023-09-18T09:09:24;22.80;43.70
15879;DHT22;61999;51.514;14.614;2023-09-18T09:11:52;22.90;43.90
15879;DHT22;61999;51.514;14.614;2023-09-18T09:14:20;22.90;43.50
15879;DHT22;61999;51.514;14.614;2023-09-18T09:16:57;22.90;43.10
15879;DHT22;61999;51.514;14.614;2023-09-18T09:19:29;23.10;44.20
15879;DHT22;61999;51.514;14.614;2023-09-18T09:21:58;23.20;43.20
15879;DHT22;61999;51.514;14.614;2023-09-18T09:24:38;23.20;42.40
15879;DHT22;61999;51.514;14.614;2023-09-18T09:27:07;23.50;42.30
15879;DHT22;61999;51.514;14.614;2023-09-18T09:29:35;23.70;42.10
15879;DHT22;61999;51.514;14.614;2023-09-18T09:32:15;23.60;41.20
15879;DHT22;61999;51.514;14.614;2023-09-18T09:34:46;23.70;42.10
15879;DHT22;61999;51.514;14.614;2023-09-18T09:37:14;23.90;40.90
15879;DHT22;61999;51.514;14.614;2023-09-18T09:39:49;23.90;41.50
15879;DHT22;61999;51.514;14.614;2023-09-18T09:42:19;23.80;40.40
15879;DHT22;61999;51.514;14.614;2023-09-18T09:45:02;24.00;40.60
15879;DHT22;61999;51.514;14.614;2023-09-18T09:47:36;24.20;40.60
15879;DHT22;61999;51.514;14.614;2023-09-18T09:50:09;24.30;39.70
15879;DHT22;61999;51.514;14.614;2023-09-18T09:52:42;24.80;40.30
15879;DHT22;61999;51.514;14.614;2023-09-18T09:55:21;25.00;38.40
15879;DHT22;61999;51.514;14.614;2023-09-18T09:57:53;25.40;37.70
15879;DHT22;61999;51.514;14.614;2023-09-18T10:00:25;25.70;37.10
15879;DHT22;61999;51.514;14.614;2023-09-18T10:03:02;26.00;37.50
15879;DHT22;61999;51.514;14.614;2023-09-18T10:05:32;26.00;36.40
15879;DHT22;61999;51.514;14.614;2023-09-18T10:08:04;26.10;36.50
15879;DHT22;61999;51.514;14.614;2023-09-18T10:10:40;26.10;36.20
15879;DHT22;61999;51.514;14.614;2023-09-18T10:13:17;26.40;37.20
15879;DHT22;61999;51.514;14.614;2023-09-18T10:15:49;26.70;36.10
15879;DHT22;61999;51.514;14.614;2023-09-18T10:18:26;26.90;35.50
15879;DHT22;61999;51.514;14.614;2023-09-18T10:21:03;27.20;34.40
15879;DHT22;61999;51.514;14.614;2023-09-18T10:23:50;27.30;34.70
15879;DHT22;61999;51.514;14.614;2023-09-18T10:26:26;27.50;35.90
15879;DHT22;61999;51.514;14.614;2023-09-18T10:28:57;27.90;34.50
15879;DHT22;61999;51.514;14.614;2023-09-18T10:31:29;27.80;33.60
15879;DHT22;61999;51.514;14.614;2023-09-18T10:34:02;27.60;33.90
15879;DHT22;61999;51.514;14.614;2023-09-18T10:36:33;27.50;34.20
15879;DHT22;61999;51.514;14.614;2023-09-18T10:39:02;27.30;34.20
15879;DHT22;61999;51.514;14.614;2023-09-18T10:41:35;26.90;35.00
15879;DHT22;61999;51.514;14.614;2023-09-18T10:44:05;27.10;35.40
15879;DHT22;61999;51.514;14.614;2023-09-18T10:46:34;27.30;34.70
15879;DHT22;61999;51.514;14.614;2023-09-18T10:49:04;27.40;35.00
15879;DHT22;61999;51.514;14.614;2023-09-18T10:51:32;27.50;35.00
15879;DHT22;61999;51.514;14.614;2023-09-18T10:54:01;27.70;35.70
15879;DHT22;61999;51.514;14.614;2023-09-18T10:56:30;28.40;34.50
15879;DHT22;61999;51.514;14.614;2023-09-18T10:59:00;28.90;33.80
15879;DHT22;61999;51.514;14.614;2023-09-18T11:01:30;29.20;33.50
15879;DHT22;61999;51.514;14.614;2023-09-18T11:04:00;29.20;33.20
15879;DHT22;61999;51.514;14.614;2023-09-18T11:07:01;29.40;32.80
15879;DHT22;61999;51.514;14.614;2023-09-18T11:09:40;29.60;32.70
15879;DHT22;61999;51.514;14.614;2023-09-18T11:12:10;29.90;31.90
15879;DHT22;61999;51.514;14.614;2023-09-18T11:14:43;30.40;30.80
15879;DHT22;61999;51.514;14.614;2023-09-18T11:17:29;30.40;31.30
15879;DHT22;61999;51.514;14.614;2023-09-18T11:20:06;30.20;31.40
15879;DHT22;61999;51.514;14.614;2023-09-18T11:22:45;30.00;31.30
15879;DHT22;61999;51.514;14.614;2023-09-18T11:25:34;29.70;30.80
15879;DHT22;61999;51.514;14.614;2023-09-18T11:28:04;29.40;31.50
15879;DHT22;61999;51.514;14.614;2023-09-18T11:30:35;29.20;31.70
15879;DHT22;61999;51.514;14.614;2023-09-18T11:33:05;29.00;31.70
15879;DHT22;61999;51.514;14.614;2023-09-18T11:35:36;28.80;32.40
15879;DHT22;61999;51.514;14.614;2023-09-18T11:38:07;28.70;33.40
15879;DHT22;61999;51.514;14.614;2023-09-18T11:40:38;28.80;33.80
15879;DHT22;61999;51.514;14.614;2023-09-18T11:43:21;29.30;33.00
15879;DHT22;61999;51.514;14.614;2023-09-18T11:45:52;29.50;32.10
15879;DHT22;61999;51.514;14.614;2023-09-18T11:48:22;29.60;32.40
15879;DHT22;61999;51.514;14.614;2023-09-18T11:50:56;29.90;31.70
15879;DHT22;61999;51.514;14.614;2023-09-18T11:53:27;29.70;31.70
15879;DHT22;61999;51.514;14.614;2023-09-18T11:55:56;29.40;32.00
15879;DHT22;61999;51.514;14.614;2023-09-18T11:58:24;29.30;32.40
15879;DHT22;61999;51.514;14.614;2023-09-18T12:00:53;29.10;32.60
15879;DHT22;61999;51.514;14.614;2023-09-18T12:03:23;29.10;32.80
15879;DHT22;61999;51.514;14.614;2023-09-18T12:05:57;29.40;32.20
15879;DHT22;61999;51.514;14.614;2023-09-18T12:08:28;29.40;32.30
15879;DHT22;61999;51.514;14.614;2023-09-18T12:10:58;29.40;32.90
15879;DHT22;61999;51.514;14.614;2023-09-18T12:13:27;29.40;32.10
15879;DHT22;61999;51.514;14.614;2023-09-18T12:15:58;29.50;31.80
15879;DHT22;61999;51.514;14.614;2023-09-18T12:18:28;29.30;32.70
15879;DHT22;61999;51.514;14.614;2023-09-18T12:20:56;29.10;32.20
15879;DHT22;61999;51.514;14.614;2023-09-18T12:23:25;28.80;32.80
15879;DHT22;61999;51.514;14.614;2023-09-18T12:26:00;28.80;33.20
15879;DHT22;61999;51.514;14.614;2023-09-18T12:28:30;28.70;33.00
15879;DHT22;61999;51.514;14.614;2023-09-18T12:30:58;28.70;33.40
15879;DHT22;61999;51.514;14.614;2023-09-18T12:33:34;28.90;33.60
15879;DHT22;61999;51.514;14.614;2023-09-18T12:36:04;28.90;33.60
15879;DHT22;61999;51.514;14.614;2023-09-18T12:38:33;29.20;33.90
15879;DHT22;61999;51.514;14.614;2023-09-18T12:41:03;29.40;33.20
15879;DHT22;61999;51.514;14.614;2023-09-18T12:43:35;29.50;31.90
15879;DHT22;61999;51.514;14.614;2023-09-18T12:46:05;29.60;32.10
15879;DHT22;61999;51.514;14.614;2023-09-18T12:48:37;29.70;32.40
15879;DHT22;61999;51.514;14.614;2023-09-18T12:51:06;29.80;31.90
15879;DHT22;61999;51.514;14.614;2023-09-18T12:53:34;29.60;32.50
15879;DHT22;61999;51.514;14.614;2023-09-18T12:56:08;29.80;32.50
15879;DHT22;61999;51.514;14.614;2023-09-18T12:58:39;30.00;33.90
15879;DHT22;61999;51.514;14.614;2023-09-18T13:01:18;30.30;32.30
15879;DHT22;61999;51.514;14.614;2023-09-18T13:03:46;30.30;31.80
15879;DHT22;61999;51.514;14.614;2023-09-18T13:06:16;30.30;31.80
15879;DHT22;61999;51.514;14.614;2023-09-18T13:08:46;30.40;32.10
15879;DHT22;61999;51.514;14.614;2023-09-18T13:11:16;30.40;32.20
15879;DHT22;61999;51.514;14.614;2023-09-18T13:13:44;30.40;32.80
15879;DHT22;61999;51.514;14.614;2023-09-18T13:16:12;30.80;31.30
15879;DHT22;61999;51.514;14.614;2023-09-18T13:18:40;30.90;31.70
15879;DHT22;61999;51.514;14.614;2023-09-18T13:21:11;31.20;31.90
15879;DHT22;61999;51.514;14.614;2023-09-18T13:23:40;31.60;30.80
15879;DHT22;61999;51.514;14.614;2023-09-18T13:26:08;32.00;29.80
15879;DHT22;61999;51.514;14.614;2023-09-18T13:28:38;32.20;29.40
15879;DHT22;61999;51.514;14.614;2023-09-18T13:31:07;32.30;29.30
15879;DHT22;61999;51.514;14.614;2023-09-18T13:33:38;32.50;28.40
15879;DHT22;61999;51.514;14.614;2023-09-18T13:36:07;32.10;28.50
15879;DHT22;61999;51.514;14.614;2023-09-18T13:38:35;31.90;28.30
15879;DHT22;61999;51.514;14.614;2023-09-18T13:41:03;31.40;28.80
15879;DHT22;61999;51.514;14.614;2023-09-18T13:43:31;31.00;29.40
15879;DHT22;61999;51.514;14.614;2023-09-18T13:46:02;30.80;29.10
15879;DHT22;61999;51.514;14.614;2023-09-18T13:48:31;30.40;29.70
15879;DHT22;61999;51.514;14.614;2023-09-18T13:51:00;30.10;30.00
15879;DHT22;61999;51.514;14.614;2023-09-18T13:53:30;29.70;30.50
15879;DHT22;61999;51.514;14.614;2023-09-18T13:55:58;29.40;30.60
15879;DHT22;61999;51.514;14.614;2023-09-18T13:58:26;28.90;31.60
15879;DHT22;61999;51.514;14.614;2023-09-18T14:00:54;28.40;31.90
15879;DHT22;61999;51.514;14.614;2023-09-18T14:03:24;28.00;32.80
15879;DHT22;61999;51.514;14.614;2023-09-18T14:05:52;27.60;33.60
15879;DHT22;61999;51.514;14.614;2023-09-18T14:08:20;27.30;33.90
15879;DHT22;61999;51.514;14.614;2023-09-18T14:10:48;27.00;34.50
15879;DHT22;61999;51.514;14.614;2023-09-18T14:13:16;27.10;34.60
15879;DHT22;61999;51.514;14.614;2023-09-18T14:15:44;27.00;35.00
15879;DHT22;61999;51.514;14.614;2023-09-18T14:18:17;26.90;35.20
15879;DHT22;61999;51.514;14.614;2023-09-18T14:20:46;26.90;35.20
15879;DHT22;61999;51.514;14.614;2023-09-18T14:23:14;26.70;35.40
15879;DHT22;61999;51.514;14.614;2023-09-18T14:25:42;26.50;35.70
15879;DHT22;61999;51.514;14.614;2023-09-18T14:28:10;26.30;36.40
15879;DHT22;61999;51.514;14.614;2023-09-18T14:30:38;26.10;36.50
15879;DHT22;61999;51.514;14.614;2023-09-18T14:33:06;25.90;36.40
15879;DHT22;61999;51.514;14.614;2023-09-18T14:35:35;25.80;36.70
15879;DHT22;61999;51.514;14.614;2023-09-18T14:38:05;25.70;37.00
15879;DHT22;61999;51.514;14.614;2023-09-18T14:40:33;25.70;37.30
15879;DHT22;61999;51.514;14.614;2023-09-18T14:43:01;25.90;36.90
15879;DHT22;61999;51.514;14.614;2023-09-18T14:45:31;25.80;36.90
15879;DHT22;61999;51.514;14.614;2023-09-18T14:47:59;25.90;37.30
15879;DHT22;61999;51.514;14.614;2023-09-18T14:50:27;26.00;36.50
15879;DHT22;61999;51.514;14.614;2023-09-18T14:52:55;26.10;36.30
15879;DHT22;61999;51.514;14.614;2023-09-18T14:55:24;25.70;36.70
15879;DHT22;61999;51.514;14.614;2023-09-18T14:57:52;25.70;36.80
15879;DHT22;61999;51.514;14.614;2023-09-18T15:00:20;25.40;37.20
15879;DHT22;61999;51.514;14.614;2023-09-18T15:02:48;25.10;37.40
15879;DHT22;61999;51.514;14.614;2023-09-18T15:05:16;24.80;38.20
15879;DHT22;61999;51.514;14.614;2023-09-18T15:07:44;25.00;38.80
15879;DHT22;61999;51.514;14.614;2023-09-18T15:10:12;25.00;38.70
15879;DHT22;61999;51.514;14.614;2023-09-18T15:12:42;25.00;39.10
15879;DHT22;61999;51.514;14.614;2023-09-18T15:15:10;25.00;39.20
15879;DHT22;61999;51.514;14.614;2023-09-18T15:17:38;24.80;39.30
15879;DHT22;61999;51.514;14.614;2023-09-18T15:20:07;24.70;39.40
15879;DHT22;61999;51.514;14.614;2023-09-18T15:22:38;24.50;39.50
15879;DHT22;61999;51.514;14.614;2023-09-18T15:25:07;24.40;39.80
15879;DHT22;61999;51.514;14.614;2023-09-18T15:27:35;24.30;40.20
15879;DHT22;61999;51.514;14.614;2023-09-18T15:30:06;24.30;40.40
15879;DHT22;61999;51.514;14.614;2023-09-18T15:32:47;24.20;40.70